KSUN

Friedman Memorial Airport

Hailey, Idaho, USA
METAR KSUN 241347Z 30006KT 10SM SCT070 10/08 A3014
Observed Flight Rules
May-24 @ 13:47 UTC (8 minutes ago) Visual Flight Rules
Wind Visibility Clouds
300° at 6 knots 10 miles
  • Scattered at 7,000' AGL
Temperatures Readings
Current 10°C / 50°F
Dewpoint 8°C / 46°F
Humidity 88%
Altimeter 30.14" Hg
Pressure 1021 hPa
Elevation 1620
METAR KSUN 241347Z 30006KT 10SM SCT070 10/08 A3014
Observed Flight Rules
May-24 @ 13:47 UTC
(8 minutes ago)
VFR
Wind Visibility
300° at 6 knots 10 miles
Clouds
  • Scattered at 7,000' AGL
Temperature Dewpoint
10°C / 50°F 8°C / 46°F
Humidity Altimeter Pressure
88% 30.14" Hg 1021 hPa